sensor_id;sensor_type;location;lat;lon;timestamp;temperature;humidity
55135;DHT22;41031;44.750;11.308;2023-12-20T00:02:17;4.20;95.20
55135;DHT22;41031;44.750;11.308;2023-12-20T00:04:44;4.20;95.30
55135;DHT22;41031;44.750;11.308;2023-12-20T00:07:12;4.10;95.30
55135;DHT22;41031;44.750;11.308;2023-12-20T00:09:39;4.10;95.40
55135;DHT22;41031;44.750;11.308;2023-12-20T00:12:06;4.10;95.60
55135;DHT22;41031;44.750;11.308;2023-12-20T00:14:34;4.10;95.70
55135;DHT22;41031;44.750;11.308;2023-12-20T00:17:01;4.20;95.70
55135;DHT22;41031;44.750;11.308;2023-12-20T00:19:28;4.20;95.70
55135;DHT22;41031;44.750;11.308;2023-12-20T00:21:55;4.10;95.70
55135;DHT22;41031;44.750;11.308;2023-12-20T00:24:22;4.20;95.70
55135;DHT22;41031;44.750;11.308;2023-12-20T00:26:50;4.10;95.60
55135;DHT22;41031;44.750;11.308;2023-12-20T00:29:17;4.10;95.70
55135;DHT22;41031;44.750;11.308;2023-12-20T00:31:44;4.10;95.90
55135;DHT22;41031;44.750;11.308;2023-12-20T00:34:11;4.10;95.70
55135;DHT22;41031;44.750;11.308;2023-12-20T00:36:39;4.10;95.70
55135;DHT22;41031;44.750;11.308;2023-12-20T00:39:06;4.00;95.70
55135;DHT22;41031;44.750;11.308;2023-12-20T00:41:33;4.00;95.70
55135;DHT22;41031;44.750;11.308;2023-12-20T00:44:00;4.00;95.70
55135;DHT22;41031;44.750;11.308;2023-12-20T00:46:28;4.00;95.70
55135;DHT22;41031;44.750;11.308;2023-12-20T00:48:55;4.00;95.70
55135;DHT22;41031;44.750;11.308;2023-12-20T00:51:22;4.00;95.70
55135;DHT22;41031;44.750;11.308;2023-12-20T00:53:50;4.00;95.60
55135;DHT22;41031;44.750;11.308;2023-12-20T00:56:21;4.00;95.50
55135;DHT22;41031;44.750;11.308;2023-12-20T00:58:48;3.90;95.50
55135;DHT22;41031;44.750;11.308;2023-12-20T01:01:15;3.90;95.40
55135;DHT22;41031;44.750;11.308;2023-12-20T01:03:43;3.90;95.30
55135;DHT22;41031;44.750;11.308;2023-12-20T01:06:10;3.80;95.40
55135;DHT22;41031;44.750;11.308;2023-12-20T01:08:37;3.80;95.40
55135;DHT22;41031;44.750;11.308;2023-12-20T01:11:05;3.80;95.40
55135;DHT22;41031;44.750;11.308;2023-12-20T01:13:33;3.80;95.40
55135;DHT22;41031;44.750;11.308;2023-12-20T01:16:00;3.70;95.50
55135;DHT22;41031;44.750;11.308;2023-12-20T01:18:27;3.70;95.50
55135;DHT22;41031;44.750;11.308;2023-12-20T01:20:54;3.70;95.30
55135;DHT22;41031;44.750;11.308;2023-12-20T01:23:21;3.60;95.20
55135;DHT22;41031;44.750;11.308;2023-12-20T01:25:48;3.60;95.40
55135;DHT22;41031;44.750;11.308;2023-12-20T01:28:16;3.60;95.50
55135;DHT22;41031;44.750;11.308;2023-12-20T01:30:43;3.60;95.50
55135;DHT22;41031;44.750;11.308;2023-12-20T01:33:10;3.60;95.50
55135;DHT22;41031;44.750;11.308;2023-12-20T01:35:37;3.60;95.60
55135;DHT22;41031;44.750;11.308;2023-12-20T01:38:04;3.60;95.60
55135;DHT22;41031;44.750;11.308;2023-12-20T01:40:31;3.60;95.60
55135;DHT22;41031;44.750;11.308;2023-12-20T01:43:00;3.60;95.60
55135;DHT22;41031;44.750;11.308;2023-12-20T01:45:27;3.50;95.50
55135;DHT22;41031;44.750;11.308;2023-12-20T01:47:57;3.50;95.50
55135;DHT22;41031;44.750;11.308;2023-12-20T01:50:24;3.40;95.40
55135;DHT22;41031;44.750;11.308;2023-12-20T01:52:55;3.40;95.30
55135;DHT22;41031;44.750;11.308;2023-12-20T01:55:25;3.30;95.30
55135;DHT22;41031;44.750;11.308;2023-12-20T01:57:53;3.30;95.30
55135;DHT22;41031;44.750;11.308;2023-12-20T02:00:21;3.30;95.30
55135;DHT22;41031;44.750;11.308;2023-12-20T02:02:52;3.20;95.30
55135;DHT22;41031;44.750;11.308;2023-12-20T02:05:20;3.20;95.40
55135;DHT22;41031;44.750;11.308;2023-12-20T02:07:48;3.20;95.40
55135;DHT22;41031;44.750;11.308;2023-12-20T02:10:15;3.20;95.50
55135;DHT22;41031;44.750;11.308;2023-12-20T02:12:43;3.20;95.60
55135;DHT22;41031;44.750;11.308;2023-12-20T02:15:10;3.20;95.60
55135;DHT22;41031;44.750;11.308;2023-12-20T02:17:38;3.30;95.60
55135;DHT22;41031;44.750;11.308;2023-12-20T02:20:07;3.30;95.60
55135;DHT22;41031;44.750;11.308;2023-12-20T02:22:34;3.30;95.90
55135;DHT22;41031;44.750;11.308;2023-12-20T02:25:02;3.30;95.60
55135;DHT22;41031;44.750;11.308;2023-12-20T02:27:29;3.30;95.70
55135;DHT22;41031;44.750;11.308;2023-12-20T02:29:57;3.20;95.80
55135;DHT22;41031;44.750;11.308;2023-12-20T02:32:24;3.20;95.80
55135;DHT22;41031;44.750;11.308;2023-12-20T02:34:55;3.20;95.80
55135;DHT22;41031;44.750;11.308;2023-12-20T02:37:24;3.30;95.90
55135;DHT22;41031;44.750;11.308;2023-12-20T02:39:51;3.30;96.00
55135;DHT22;41031;44.750;11.308;2023-12-20T02:42:18;3.30;96.10
55135;DHT22;41031;44.750;11.308;2023-12-20T02:44:45;3.30;96.10
55135;DHT22;41031;44.750;11.308;2023-12-20T02:47:12;3.20;96.10
55135;DHT22;41031;44.750;11.308;2023-12-20T02:49:39;3.30;96.20
55135;DHT22;41031;44.750;11.308;2023-12-20T02:52:06;3.30;96.10
55135;DHT22;41031;44.750;11.308;2023-12-20T02:54:33;3.30;96.10
55135;DHT22;41031;44.750;11.308;2023-12-20T02:57:01;3.30;96.10
55135;DHT22;41031;44.750;11.308;2023-12-20T02:59:28;3.20;96.20
55135;DHT22;41031;44.750;11.308;2023-12-20T03:01:55;3.20;96.20
55135;DHT22;41031;44.750;11.308;2023-12-20T03:04:22;3.20;96.30
55135;DHT22;41031;44.750;11.308;2023-12-20T03:06:49;3.20;96.30
55135;DHT22;41031;44.750;11.308;2023-12-20T03:09:16;3.20;96.30
55135;DHT22;41031;44.750;11.308;2023-12-20T03:11:44;3.20;96.20
55135;DHT22;41031;44.750;11.308;2023-12-20T03:14:11;3.20;96.20
55135;DHT22;41031;44.750;11.308;2023-12-20T03:16:38;3.20;96.20
55135;DHT22;41031;44.750;11.308;2023-12-20T03:19:05;3.20;96.20
55135;DHT22;41031;44.750;11.308;2023-12-20T03:21:32;3.20;96.20
55135;DHT22;41031;44.750;11.308;2023-12-20T03:23:59;3.10;96.20
55135;DHT22;41031;44.750;11.308;2023-12-20T03:26:26;3.10;96.10
55135;DHT22;41031;44.750;11.308;2023-12-20T03:28:53;3.10;96.10
55135;DHT22;41031;44.750;11.308;2023-12-20T03:31:20;3.10;96.10
55135;DHT22;41031;44.750;11.308;2023-12-20T03:33:48;3.10;96.20
55135;DHT22;41031;44.750;11.308;2023-12-20T03:36:16;3.10;96.20
55135;DHT22;41031;44.750;11.308;2023-12-20T03:38:43;3.10;96.30
55135;DHT22;41031;44.750;11.308;2023-12-20T03:41:10;3.10;96.30
55135;DHT22;41031;44.750;11.308;2023-12-20T03:43:38;3.10;96.20
55135;DHT22;41031;44.750;11.308;2023-12-20T03:46:07;3.00;96.20
55135;DHT22;41031;44.750;11.308;2023-12-20T03:48:35;3.00;96.20
55135;DHT22;41031;44.750;11.308;2023-12-20T03:51:02;3.00;96.10
55135;DHT22;41031;44.750;11.308;2023-12-20T03:53:29;2.90;96.10
55135;DHT22;41031;44.750;11.308;2023-12-20T03:55:56;2.90;96.10
55135;DHT22;41031;44.750;11.308;2023-12-20T03:58:23;2.90;96.10
55135;DHT22;41031;44.750;11.308;2023-12-20T04:00:50;2.90;96.40
55135;DHT22;41031;44.750;11.308;2023-12-20T04:03:17;2.90;96.10
55135;DHT22;41031;44.750;11.308;2023-12-20T04:05:44;2.90;96.20
55135;DHT22;41031;44.750;11.308;2023-12-20T04:08:12;2.90;96.20
55135;DHT22;41031;44.750;11.308;2023-12-20T04:10:39;2.90;96.10
55135;DHT22;41031;44.750;11.308;2023-12-20T04:13:06;2.80;96.10
55135;DHT22;41031;44.750;11.308;2023-12-20T04:15:33;2.80;96.30
55135;DHT22;41031;44.750;11.308;2023-12-20T04:18:01;2.80;96.00
55135;DHT22;41031;44.750;11.308;2023-12-20T04:20:28;2.80;96.00
55135;DHT22;41031;44.750;11.308;2023-12-20T04:22:55;2.80;96.00
55135;DHT22;41031;44.750;11.308;2023-12-20T04:25:22;2.80;96.00
55135;DHT22;41031;44.750;11.308;2023-12-20T04:27:49;2.80;96.00
55135;DHT22;41031;44.750;11.308;2023-12-20T04:30:16;2.80;96.10
55135;DHT22;41031;44.750;11.308;2023-12-20T04:32:44;2.90;96.20
55135;DHT22;41031;44.750;11.308;2023-12-20T04:35:11;2.90;96.30
55135;DHT22;41031;44.750;11.308;2023-12-20T04:37:38;3.00;96.40
55135;DHT22;41031;44.750;11.308;2023-12-20T04:40:05;3.00;96.50
55135;DHT22;41031;44.750;11.308;2023-12-20T04:42:33;3.10;96.50
55135;DHT22;41031;44.750;11.308;2023-12-20T04:45:00;3.20;96.60
55135;DHT22;41031;44.750;11.308;2023-12-20T04:47:27;3.20;96.60
55135;DHT22;41031;44.750;11.308;2023-12-20T04:49:54;3.20;96.60
55135;DHT22;41031;44.750;11.308;2023-12-20T04:52:21;3.30;96.60
55135;DHT22;41031;44.750;11.308;2023-12-20T04:54:48;3.30;96.60
55135;DHT22;41031;44.750;11.308;2023-12-20T04:57:15;3.30;96.80
55135;DHT22;41031;44.750;11.308;2023-12-20T04:59:43;3.30;96.50
55135;DHT22;41031;44.750;11.308;2023-12-20T05:02:10;3.30;96.40
55135;DHT22;41031;44.750;11.308;2023-12-20T05:04:37;3.30;96.40
55135;DHT22;41031;44.750;11.308;2023-12-20T05:07:04;3.30;96.40
55135;DHT22;41031;44.750;11.308;2023-12-20T05:09:32;3.30;96.30
55135;DHT22;41031;44.750;11.308;2023-12-20T05:12:00;3.20;96.10
55135;DHT22;41031;44.750;11.308;2023-12-20T05:14:27;3.20;96.10
55135;DHT22;41031;44.750;11.308;2023-12-20T05:16:54;3.10;96.10
55135;DHT22;41031;44.750;11.308;2023-12-20T05:19:21;3.10;96.10
55135;DHT22;41031;44.750;11.308;2023-12-20T05:21:48;3.00;96.20
55135;DHT22;41031;44.750;11.308;2023-12-20T05:24:16;3.00;96.20
55135;DHT22;41031;44.750;11.308;2023-12-20T05:26:43;2.90;96.20
55135;DHT22;41031;44.750;11.308;2023-12-20T05:29:10;2.90;96.20
55135;DHT22;41031;44.750;11.308;2023-12-20T05:31:37;2.90;96.40
55135;DHT22;41031;44.750;11.308;2023-12-20T05:34:04;2.90;96.40
55135;DHT22;41031;44.750;11.308;2023-12-20T05:36:31;2.90;96.50
55135;DHT22;41031;44.750;11.308;2023-12-20T05:38:59;2.90;96.50
55135;DHT22;41031;44.750;11.308;2023-12-20T05:41:26;3.00;96.50
55135;DHT22;41031;44.750;11.308;2023-12-20T05:43:53;3.00;96.50
55135;DHT22;41031;44.750;11.308;2023-12-20T05:46:20;3.00;96.50
55135;DHT22;41031;44.750;11.308;2023-12-20T05:48:48;3.00;96.50
55135;DHT22;41031;44.750;11.308;2023-12-20T05:51:15;3.00;96.50
55135;DHT22;41031;44.750;11.308;2023-12-20T05:53:43;3.00;96.50
55135;DHT22;41031;44.750;11.308;2023-12-20T05:56:11;3.00;96.50
55135;DHT22;41031;44.750;11.308;2023-12-20T05:58:39;3.00;96.50
55135;DHT22;41031;44.750;11.308;2023-12-20T06:01:06;3.00;96.60
55135;DHT22;41031;44.750;11.308;2023-12-20T06:03:35;2.90;96.60
55135;DHT22;41031;44.750;11.308;2023-12-20T06:06:08;3.00;96.60
55135;DHT22;41031;44.750;11.308;2023-12-20T06:08:43;3.00;96.70
55135;DHT22;41031;44.750;11.308;2023-12-20T06:11:11;3.00;96.70
55135;DHT22;41031;44.750;11.308;2023-12-20T06:13:38;3.00;96.70
55135;DHT22;41031;44.750;11.308;2023-12-20T06:16:06;3.00;96.90
55135;DHT22;41031;44.750;11.308;2023-12-20T06:18:34;3.00;96.60
55135;DHT22;41031;44.750;11.308;2023-12-20T06:21:01;3.00;96.60
55135;DHT22;41031;44.750;11.308;2023-12-20T06:23:29;3.00;96.60
55135;DHT22;41031;44.750;11.308;2023-12-20T06:25:56;3.00;96.50
55135;DHT22;41031;44.750;11.308;2023-12-20T06:28:23;3.00;96.50
55135;DHT22;41031;44.750;11.308;2023-12-20T06:30:50;3.00;96.50
55135;DHT22;41031;44.750;11.308;2023-12-20T06:33:19;3.00;96.50
55135;DHT22;41031;44.750;11.308;2023-12-20T06:35:49;2.90;96.50
55135;DHT22;41031;44.750;11.308;2023-12-20T06:38:17;3.00;96.50
55135;DHT22;41031;44.750;11.308;2023-12-20T06:40:44;3.00;96.50
55135;DHT22;41031;44.750;11.308;2023-12-20T06:43:13;3.00;96.40
55135;DHT22;41031;44.750;11.308;2023-12-20T06:45:58;3.00;96.50
55135;DHT22;41031;44.750;11.308;2023-12-20T06:48:25;3.00;96.40
55135;DHT22;41031;44.750;11.308;2023-12-20T06:50:52;2.90;96.40
55135;DHT22;41031;44.750;11.308;2023-12-20T06:53:19;3.00;96.50
55135;DHT22;41031;44.750;11.308;2023-12-20T06:55:47;3.00;96.40
55135;DHT22;41031;44.750;11.308;2023-12-20T06:58:14;3.00;96.40
55135;DHT22;41031;44.750;11.308;2023-12-20T07:00:41;3.00;96.40
55135;DHT22;41031;44.750;11.308;2023-12-20T07:03:09;3.00;96.50
55135;DHT22;41031;44.750;11.308;2023-12-20T07:05:37;3.10;96.60
55135;DHT22;41031;44.750;11.308;2023-12-20T07:08:05;3.20;96.70
55135;DHT22;41031;44.750;11.308;2023-12-20T07:10:32;3.20;96.70
55135;DHT22;41031;44.750;11.308;2023-12-20T07:13:00;3.30;96.80
55135;DHT22;41031;44.750;11.308;2023-12-20T07:15:27;3.30;96.80
55135;DHT22;41031;44.750;11.308;2023-12-20T07:17:56;3.40;96.90
55135;DHT22;41031;44.750;11.308;2023-12-20T07:20:23;3.50;96.90
55135;DHT22;41031;44.750;11.308;2023-12-20T07:22:51;3.50;96.80
55135;DHT22;41031;44.750;11.308;2023-12-20T07:25:18;3.50;96.80
55135;DHT22;41031;44.750;11.308;2023-12-20T07:27:45;3.60;96.90
55135;DHT22;41031;44.750;11.308;2023-12-20T07:30:13;3.60;96.90
55135;DHT22;41031;44.750;11.308;2023-12-20T07:32:40;3.70;97.00
55135;DHT22;41031;44.750;11.308;2023-12-20T07:35:07;3.80;97.20
55135;DHT22;41031;44.750;11.308;2023-12-20T07:37:35;3.80;97.00
55135;DHT22;41031;44.750;11.308;2023-12-20T07:40:02;3.90;97.00
55135;DHT22;41031;44.750;11.308;2023-12-20T07:42:30;3.90;97.00
55135;DHT22;41031;44.750;11.308;2023-12-20T07:44:57;4.00;97.10
55135;DHT22;41031;44.750;11.308;2023-12-20T07:47:24;4.10;97.10
55135;DHT22;41031;44.750;11.308;2023-12-20T07:49:52;4.20;97.10
55135;DHT22;41031;44.750;11.308;2023-12-20T07:52:20;4.30;97.00
55135;DHT22;41031;44.750;11.308;2023-12-20T07:54:49;4.30;97.00
55135;DHT22;41031;44.750;11.308;2023-12-20T07:57:16;4.40;96.90
55135;DHT22;41031;44.750;11.308;2023-12-20T07:59:43;4.40;96.80
55135;DHT22;41031;44.750;11.308;2023-12-20T08:02:11;4.50;96.80
55135;DHT22;41031;44.750;11.308;2023-12-20T08:04:38;4.50;96.80
55135;DHT22;41031;44.750;11.308;2023-12-20T08:07:06;4.50;96.80
55135;DHT22;41031;44.750;11.308;2023-12-20T08:09:33;4.60;96.80
55135;DHT22;41031;44.750;11.308;2023-12-20T08:12:03;4.60;96.80
55135;DHT22;41031;44.750;11.308;2023-12-20T08:14:30;4.70;96.70
55135;DHT22;41031;44.750;11.308;2023-12-20T08:16:58;4.70;96.70
55135;DHT22;41031;44.750;11.308;2023-12-20T08:19:25;4.70;96.60
55135;DHT22;41031;44.750;11.308;2023-12-20T08:21:53;4.70;96.60
55135;DHT22;41031;44.750;11.308;2023-12-20T08:24:20;4.80;96.60
55135;DHT22;41031;44.750;11.308;2023-12-20T08:26:47;4.80;96.60
55135;DHT22;41031;44.750;11.308;2023-12-20T08:29:14;4.80;96.60
55135;DHT22;41031;44.750;11.308;2023-12-20T08:31:41;4.80;96.50
55135;DHT22;41031;44.750;11.308;2023-12-20T08:34:08;4.90;96.50
55135;DHT22;41031;44.750;11.308;2023-12-20T08:36:36;4.90;96.50
55135;DHT22;41031;44.750;11.308;2023-12-20T08:39:03;4.90;96.50
55135;DHT22;41031;44.750;11.308;2023-12-20T08:41:33;5.00;96.50
55135;DHT22;41031;44.750;11.308;2023-12-20T08:44:00;5.00;96.50
55135;DHT22;41031;44.750;11.308;2023-12-20T08:46:27;5.10;96.40
55135;DHT22;41031;44.750;11.308;2023-12-20T08:48:55;5.10;96.40
55135;DHT22;41031;44.750;11.308;2023-12-20T08:51:22;5.10;96.40
55135;DHT22;41031;44.750;11.308;2023-12-20T08:53:52;5.10;96.40
55135;DHT22;41031;44.750;11.308;2023-12-20T08:56:19;5.20;96.40
55135;DHT22;41031;44.750;11.308;2023-12-20T08:58:47;5.20;96.40
55135;DHT22;41031;44.750;11.308;2023-12-20T09:01:14;5.30;96.40
55135;DHT22;41031;44.750;11.308;2023-12-20T09:03:42;5.30;96.40
55135;DHT22;41031;44.750;11.308;2023-12-20T09:06:09;5.40;96.50
55135;DHT22;41031;44.750;11.308;2023-12-20T09:08:36;5.50;96.50
55135;DHT22;41031;44.750;11.308;2023-12-20T09:11:03;5.50;96.40
55135;DHT22;41031;44.750;11.308;2023-12-20T09:13:30;5.60;96.30
55135;DHT22;41031;44.750;11.308;2023-12-20T09:15:59;5.70;96.30
55135;DHT22;41031;44.750;11.308;2023-12-20T09:18:26;5.80;96.20
55135;DHT22;41031;44.750;11.308;2023-12-20T09:20:54;5.80;96.20
55135;DHT22;41031;44.750;11.308;2023-12-20T09:23:21;5.90;96.20
55135;DHT22;41031;44.750;11.308;2023-12-20T09:25:48;6.00;96.20
55135;DHT22;41031;44.750;11.308;2023-12-20T09:28:15;6.10;96.10
55135;DHT22;41031;44.750;11.308;2023-12-20T09:30:43;6.10;96.10
55135;DHT22;41031;44.750;11.308;2023-12-20T09:33:12;6.20;96.10
55135;DHT22;41031;44.750;11.308;2023-12-20T09:35:39;6.30;96.00
55135;DHT22;41031;44.750;11.308;2023-12-20T09:38:07;6.40;96.00
55135;DHT22;41031;44.750;11.308;2023-12-20T09:40:35;6.50;96.00
55135;DHT22;41031;44.750;11.308;2023-12-20T09:43:04;6.50;95.90
55135;DHT22;41031;44.750;11.308;2023-12-20T09:45:32;6.60;95.90
55135;DHT22;41031;44.750;11.308;2023-12-20T09:47:59;6.60;95.80
55135;DHT22;41031;44.750;11.308;2023-12-20T09:50:27;6.70;95.80
55135;DHT22;41031;44.750;11.308;2023-12-20T09:52:57;6.70;95.70
55135;DHT22;41031;44.750;11.308;2023-12-20T09:55:27;6.70;95.70
55135;DHT22;41031;44.750;11.308;2023-12-20T09:57:55;6.70;95.60
55135;DHT22;41031;44.750;11.308;2023-12-20T10:00:22;6.80;95.60
55135;DHT22;41031;44.750;11.308;2023-12-20T10:02:59;6.80;95.60
55135;DHT22;41031;44.750;11.308;2023-12-20T10:05:28;6.80;95.60
55135;DHT22;41031;44.750;11.308;2023-12-20T10:07:57;6.90;95.60
55135;DHT22;41031;44.750;11.308;2023-12-20T10:10:25;6.90;95.60
55135;DHT22;41031;44.750;11.308;2023-12-20T10:13:09;6.90;95.60
55135;DHT22;41031;44.750;11.308;2023-12-20T10:15:38;7.00;95.60
55135;DHT22;41031;44.750;11.308;2023-12-20T10:18:05;7.00;95.60
55135;DHT22;41031;44.750;11.308;2023-12-20T10:20:33;7.00;95.60
55135;DHT22;41031;44.750;11.308;2023-12-20T10:23:01;7.00;95.50
55135;DHT22;41031;44.750;11.308;2023-12-20T10:25:28;7.00;95.50
55135;DHT22;41031;44.750;11.308;2023-12-20T10:28:10;7.10;95.50
55135;DHT22;41031;44.750;11.308;2023-12-20T10:30:39;7.00;95.50
55135;DHT22;41031;44.750;11.308;2023-12-20T10:33:07;7.00;95.50
55135;DHT22;41031;44.750;11.308;2023-12-20T10:35:35;7.10;95.60
55135;DHT22;41031;44.750;11.308;2023-12-20T10:38:04;7.10;95.50
55135;DHT22;41031;44.750;11.308;2023-12-20T10:40:35;7.10;95.60
55135;DHT22;41031;44.750;11.308;2023-12-20T10:43:05;7.10;95.60
55135;DHT22;41031;44.750;11.308;2023-12-20T10:45:34;7.10;95.60
55135;DHT22;41031;44.750;11.308;2023-12-20T10:48:02;7.20;95.60
55135;DHT22;41031;44.750;11.308;2023-12-20T10:50:30;7.20;95.60
55135;DHT22;41031;44.750;11.308;2023-12-20T10:52:58;7.30;95.60
55135;DHT22;41031;44.750;11.308;2023-12-20T10:55:26;7.30;95.70
55135;DHT22;41031;44.750;11.308;2023-12-20T10:58:00;7.40;95.70
55135;DHT22;41031;44.750;11.308;2023-12-20T11:00:29;7.40;95.60
55135;DHT22;41031;44.750;11.308;2023-12-20T11:03:04;7.50;95.60
55135;DHT22;41031;44.750;11.308;2023-12-20T11:05:46;7.50;95.60
55135;DHT22;41031;44.750;11.308;2023-12-20T11:08:19;7.60;95.60
55135;DHT22;41031;44.750;11.308;2023-12-20T11:11:13;7.70;95.60
55135;DHT22;41031;44.750;11.308;2023-12-20T11:13:53;7.80;95.60
55135;DHT22;41031;44.750;11.308;2023-12-20T11:16:21;7.90;95.50
55135;DHT22;41031;44.750;11.308;2023-12-20T11:18:52;8.00;95.30
55135;DHT22;41031;44.750;11.308;2023-12-20T11:21:19;8.00;95.10
55135;DHT22;41031;44.750;11.308;2023-12-20T11:23:47;8.00;94.90
55135;DHT22;41031;44.750;11.308;2023-12-20T11:26:26;8.10;94.90
55135;DHT22;41031;44.750;11.308;2023-12-20T11:28:53;8.20;94.90
55135;DHT22;41031;44.750;11.308;2023-12-20T11:31:20;8.20;94.80
55135;DHT22;41031;44.750;11.308;2023-12-20T11:33:47;8.20;94.40
55135;DHT22;41031;44.750;11.308;2023-12-20T11:36:18;8.10;94.30
55135;DHT22;41031;44.750;11.308;2023-12-20T11:38:56;8.10;94.30
55135;DHT22;41031;44.750;11.308;2023-12-20T11:41:24;8.00;94.40
55135;DHT22;41031;44.750;11.308;2023-12-20T11:43:55;8.10;94.60
55135;DHT22;41031;44.750;11.308;2023-12-20T11:46:23;8.00;94.70
55135;DHT22;41031;44.750;11.308;2023-12-20T11:48:50;8.10;94.80
55135;DHT22;41031;44.750;11.308;2023-12-20T11:51:18;8.10;94.70
55135;DHT22;41031;44.750;11.308;2023-12-20T11:53:51;8.10;94.60
55135;DHT22;41031;44.750;11.308;2023-12-20T11:56:18;8.10;94.70
55135;DHT22;41031;44.750;11.308;2023-12-20T11:58:46;8.10;94.60
55135;DHT22;41031;44.750;11.308;2023-12-20T12:01:16;8.10;94.60
55135;DHT22;41031;44.750;11.308;2023-12-20T12:03:43;8.10;94.60
55135;DHT22;41031;44.750;11.308;2023-12-20T12:06:12;8.10;94.70
55135;DHT22;41031;44.750;11.308;2023-12-20T12:08:40;8.10;94.80
55135;DHT22;41031;44.750;11.308;2023-12-20T12:11:07;8.10;94.70
55135;DHT22;41031;44.750;11.308;2023-12-20T12:13:34;8.10;94.70
55135;DHT22;41031;44.750;11.308;2023-12-20T12:16:02;8.10;94.80
55135;DHT22;41031;44.750;11.308;2023-12-20T12:18:31;8.00;94.80
55135;DHT22;41031;44.750;11.308;2023-12-20T12:21:02;8.00;94.90
55135;DHT22;41031;44.750;11.308;2023-12-20T12:23:38;8.00;95.10
55135;DHT22;41031;44.750;11.308;2023-12-20T12:26:06;7.90;95.10
55135;DHT22;41031;44.750;11.308;2023-12-20T12:28:34;7.90;95.10
55135;DHT22;41031;44.750;11.308;2023-12-20T12:31:02;7.90;95.20
55135;DHT22;41031;44.750;11.308;2023-12-20T12:33:29;7.90;95.30
55135;DHT22;41031;44.750;11.308;2023-12-20T12:35:56;7.90;95.60
55135;DHT22;41031;44.750;11.308;2023-12-20T12:38:26;7.90;95.70
55135;DHT22;41031;44.750;11.308;2023-12-20T12:40:54;7.90;95.50
55135;DHT22;41031;44.750;11.308;2023-12-20T12:43:21;7.90;95.50
55135;DHT22;41031;44.750;11.308;2023-12-20T12:45:50;7.90;95.60
55135;DHT22;41031;44.750;11.308;2023-12-20T12:48:17;7.90;95.60
55135;DHT22;41031;44.750;11.308;2023-12-20T12:50:47;7.90;95.60
55135;DHT22;41031;44.750;11.308;2023-12-20T12:53:15;7.90;95.60
55135;DHT22;41031;44.750;11.308;2023-12-20T12:55:42;7.80;95.70
55135;DHT22;41031;44.750;11.308;2023-12-20T12:58:09;7.80;95.70
55135;DHT22;41031;44.750;11.308;2023-12-20T13:00:36;7.80;95.80
55135;DHT22;41031;44.750;11.308;2023-12-20T13:03:03;7.80;95.90
55135;DHT22;41031;44.750;11.308;2023-12-20T13:05:31;7.80;96.00
55135;DHT22;41031;44.750;11.308;2023-12-20T13:08:03;7.80;96.10
55135;DHT22;41031;44.750;11.308;2023-12-20T13:10:30;7.80;96.10
55135;DHT22;41031;44.750;11.308;2023-12-20T13:12:57;7.70;96.20
55135;DHT22;41031;44.750;11.308;2023-12-20T13:15:24;7.70;96.20
55135;DHT22;41031;44.750;11.308;2023-12-20T13:17:52;7.70;96.20
55135;DHT22;41031;44.750;11.308;2023-12-20T13:20:20;7.70;96.30
55135;DHT22;41031;44.750;11.308;2023-12-20T13:22:47;7.70;96.70
55135;DHT22;41031;44.750;11.308;2023-12-20T13:25:14;7.70;96.50
55135;DHT22;41031;44.750;11.308;2023-12-20T13:27:41;7.70;96.50
55135;DHT22;41031;44.750;11.308;2023-12-20T13:30:09;7.70;96.60
55135;DHT22;41031;44.750;11.308;2023-12-20T13:32:36;7.70;96.60
55135;DHT22;41031;44.750;11.308;2023-12-20T13:35:04;7.70;96.60
55135;DHT22;41031;44.750;11.308;2023-12-20T13:37:31;7.60;96.60
55135;DHT22;41031;44.750;11.308;2023-12-20T13:39:58;7.60;96.80
55135;DHT22;41031;44.750;11.308;2023-12-20T13:42:26;7.60;96.90
55135;DHT22;41031;44.750;11.308;2023-12-20T13:44:54;7.60;96.90
55135;DHT22;41031;44.750;11.308;2023-12-20T13:47:21;7.60;97.00
55135;DHT22;41031;44.750;11.308;2023-12-20T13:49:50;7.50;97.00
55135;DHT22;41031;44.750;11.308;2023-12-20T13:52:18;7.50;97.00
55135;DHT22;41031;44.750;11.308;2023-12-20T13:54:45;7.50;97.10
55135;DHT22;41031;44.750;11.308;2023-12-20T13:57:12;7.50;97.10
55135;DHT22;41031;44.750;11.308;2023-12-20T13:59:57;7.50;97.20
55135;DHT22;41031;44.750;11.308;2023-12-20T14:02:24;7.50;97.20
55135;DHT22;41031;44.750;11.308;2023-12-20T14:04:53;7.60;97.30
55135;DHT22;41031;44.750;11.308;2023-12-20T14:07:21;7.60;97.30
55135;DHT22;41031;44.750;11.308;2023-12-20T14:09:48;7.60;97.30
55135;DHT22;41031;44.750;11.308;2023-12-20T14:12:16;7.60;97.30
55135;DHT22;41031;44.750;11.308;2023-12-20T14:14:43;7.60;97.20
55135;DHT22;41031;44.750;11.308;2023-12-20T14:17:12;7.70;97.30
55135;DHT22;41031;44.750;11.308;2023-12-20T14:19:39;7.70;97.30
55135;DHT22;41031;44.750;11.308;2023-12-20T14:22:06;7.70;97.30
55135;DHT22;41031;44.750;11.308;2023-12-20T14:24:35;7.70;97.30
55135;DHT22;41031;44.750;11.308;2023-12-20T14:27:03;7.80;97.30
55135;DHT22;41031;44.750;11.308;2023-12-20T14:29:30;7.80;97.20
55135;DHT22;41031;44.750;11.308;2023-12-20T14:31:57;7.80;97.10
55135;DHT22;41031;44.750;11.308;2023-12-20T14:34:24;7.80;97.10
55135;DHT22;41031;44.750;11.308;2023-12-20T14:36:51;7.70;97.10
55135;DHT22;41031;44.750;11.308;2023-12-20T14:39:19;7.70;97.10
55135;DHT22;41031;44.750;11.308;2023-12-20T14:41:46;7.70;97.40
55135;DHT22;41031;44.750;11.308;2023-12-20T14:44:13;7.70;97.10
55135;DHT22;41031;44.750;11.308;2023-12-20T14:46:40;7.70;97.20
55135;DHT22;41031;44.750;11.308;2023-12-20T14:49:08;7.70;97.20
55135;DHT22;41031;44.750;11.308;2023-12-20T14:51:35;7.70;97.20
55135;DHT22;41031;44.750;11.308;2023-12-20T14:54:05;7.70;97.20
55135;DHT22;41031;44.750;11.308;2023-12-20T14:56:37;7.60;97.20
55135;DHT22;41031;44.750;11.308;2023-12-20T14:59:04;7.60;97.20
55135;DHT22;41031;44.750;11.308;2023-12-20T15:01:31;7.60;97.30
55135;DHT22;41031;44.750;11.308;2023-12-20T15:03:58;7.60;97.40
55135;DHT22;41031;44.750;11.308;2023-12-20T15:06:27;7.50;97.50
55135;DHT22;41031;44.750;11.308;2023-12-20T15:08:54;7.50;97.50
55135;DHT22;41031;44.750;11.308;2023-12-20T15:11:21;7.50;97.60
55135;DHT22;41031;44.750;11.308;2023-12-20T15:13:48;7.50;97.60
55135;DHT22;41031;44.750;11.308;2023-12-20T15:16:23;7.50;97.70
55135;DHT22;41031;44.750;11.308;2023-12-20T15:18:50;7.50;97.70
55135;DHT22;41031;44.750;11.308;2023-12-20T15:21:17;7.50;97.70
55135;DHT22;41031;44.750;11.308;2023-12-20T15:23:45;7.40;97.60
55135;DHT22;41031;44.750;11.308;2023-12-20T15:26:21;7.40;97.60
55135;DHT22;41031;44.750;11.308;2023-12-20T15:28:48;7.30;97.60
55135;DHT22;41031;44.750;11.308;2023-12-20T15:31:15;7.30;97.70
55135;DHT22;41031;44.750;11.308;2023-12-20T15:33:43;7.30;97.70
55135;DHT22;41031;44.750;11.308;2023-12-20T15:36:10;7.30;97.70